Time;durP1;ratioP1;P1;durP2;ratioP2;P2;SDS_P1;SDS_P2;PMS_P1;PMS_P2;Temp;Humidity;BMP_temperature;BMP_pressure;BME280_temperature;BME280_humidity;BME280_pressure;Samples;Min_cycle;Max_cycle;Signal;HPM_P1;HPM_P2
2024/02/02 00:00:07;;;;;;;26.23;17.30;;;;;;;0.84;62.30;93887.88;523794;28;856;-64
2024/02/02 00:00:22;;;;;;;28.67;19.23;;;;;;;0.86;61.95;93896.31;523864;28;824;-64
2024/02/02 00:00:38;;;;;;;29.37;20.53;;;;;;;0.88;62.07;93893.09;523811;28;808;-64
2024/02/02 00:00:53;;;;;;;29.05;21.08;;;;;;;0.87;62.02;93895.06;523834;28;871;-64
2024/02/02 00:01:09;;;;;;;30.10;21.00;;;;;;;0.88;61.98;93893.84;523762;28;836;-64
2024/02/02 00:01:24;;;;;;;27.85;19.27;;;;;;;0.90;61.80;93893.38;523793;28;772;-64
2024/02/02 00:01:40;;;;;;;26.75;18.05;;;;;;;0.93;61.78;93901.34;523796;28;969;-64
2024/02/02 00:01:55;;;;;;;27.10;18.63;;;;;;;0.93;61.82;93889.72;523832;28;788;-64
2024/02/02 00:02:11;;;;;;;26.55;18.33;;;;;;;0.94;61.92;93893.91;523786;28;792;-65
2024/02/02 00:02:26;;;;;;;28.27;19.00;;;;;;;0.94;61.78;93894.66;523825;28;785;-64
2024/02/02 00:02:42;;;;;;;30.25;20.13;;;;;;;0.71;61.90;93855.59;523820;28;851;-65
2024/02/02 00:02:57;;;;;;;30.57;20.90;;;;;;;0.96;61.41;93891.47;523808;28;761;-64
2024/02/02 00:03:13;;;;;;;30.70;21.27;;;;;;;0.98;61.51;93889.78;523776;28;776;-64
2024/02/02 00:03:28;;;;;;;31.90;21.30;;;;;;;0.99;61.16;93896.72;523778;28;839;-64
2024/02/02 00:03:44;;;;;;;31.48;21.15;;;;;;;1.01;61.26;93888.84;523810;28;800;-64
2024/02/02 00:03:59;;;;;;;32.20;21.73;;;;;;;1.03;61.06;93893.78;524914;28;1152;-65
2024/02/02 00:04:15;;;;;;;35.07;23.37;;;;;;;1.04;61.30;93892.56;525848;28;1062;-64
2024/02/02 00:04:30;;;;;;;35.25;23.80;;;;;;;0.91;60.78;93871.16;525933;28;796;-64
2024/02/02 00:04:46;;;;;;;37.43;23.87;;;;;;;1.04;61.18;93893.28;525210;28;1183;-64
2024/02/02 00:05:01;;;;;;;36.83;23.65;;;;;;;1.05;60.84;93891.34;523808;28;848;-64
2024/02/02 00:05:17;;;;;;;35.80;23.50;;;;;;;1.04;60.50;93885.13;523562;28;1977;-64
2024/02/02 00:05:32;;;;;;;35.45;23.63;;;;;;;1.05;60.91;93888.63;523865;28;821;-64
2024/02/02 00:05:48;;;;;;;34.10;23.63;;;;;;;1.06;60.61;93890.84;523664;28;1498;-64
2024/02/02 00:06:03;;;;;;;34.37;23.53;;;;;;;1.02;60.58;93884.88;523814;28;725;-64
2024/02/02 00:06:19;;;;;;;34.05;23.00;;;;;;;1.10;60.58;93898.81;523750;28;830;-64
2024/02/02 00:06:34;;;;;;;34.13;23.03;;;;;;;1.11;60.09;93892.13;523821;28;748;-64
2024/02/02 00:06:50;;;;;;;36.50;23.83;;;;;;;1.11;60.40;93901.06;523852;28;792;-64
2024/02/02 00:07:05;;;;;;;36.43;23.90;;;;;;;1.14;60.57;93899.34;523826;28;756;-64
2024/02/02 00:07:21;;;;;;;38.05;24.55;;;;;;;1.14;60.60;93897.38;523789;28;847;-64
2024/02/02 00:07:36;;;;;;;38.93;25.40;;;;;;;1.16;60.42;93894.94;523807;28;776;-64
2024/02/02 00:07:52;;;;;;;39.00;26.10;;;;;;;1.17;60.18;93890.25;523815;28;839;-64
2024/02/02 00:08:07;;;;;;;38.60;26.20;;;;;;;1.19;60.46;93893.25;523744;28;732;-64
2024/02/02 00:08:23;;;;;;;36.92;24.92;;;;;;;1.19;60.37;93899.41;523839;28;784;-64
2024/02/02 00:08:38;;;;;;;35.03;23.20;;;;;;;1.18;59.96;93892.50;523762;28;768;-64
2024/02/02 00:08:54;;;;;;;33.70;22.98;;;;;;;1.12;60.16;93891.69;523904;28;876;-64
2024/02/02 00:09:09;;;;;;;33.43;23.50;;;;;;;1.11;59.93;93894.84;523754;28;820;-64
2024/02/02 00:09:25;;;;;;;32.40;23.48;;;;;;;1.04;60.46;93890.59;523785;28;839;-64
2024/02/02 00:09:40;;;;;;;34.80;24.40;;;;;;;1.05;60.02;93894.06;523823;28;898;-64
2024/02/02 00:09:59;;;;;;;35.45;23.48;;;;;;;0.94;60.31;93891.94;523789;28;792;-64
2024/02/02 00:10:14;;;;;;;35.50;22.13;;;;;;;0.91;60.89;93894.88;523794;28;804;-64
2024/02/02 00:10:30;;;;;;;31.25;20.58;;;;;;;0.90;61.17;93894.13;523775;28;792;-64
2024/02/02 00:10:45;;;;;;;26.60;18.47;;;;;;;0.91;60.86;93892.16;523825;28;811;-64
2024/02/02 00:11:01;;;;;;;23.00;17.05;;;;;;;0.90;60.72;93894.13;523869;28;780;-64
2024/02/02 00:11:16;;;;;;;20.77;15.85;;;;;;;0.90;60.70;93888.69;523737;28;768;-64
2024/02/02 00:11:33;;;;;;;19.73;15.10;;;;;;;0.92;60.94;93893.66;523893;28;787;-64
2024/02/02 00:11:49;;;;;;;21.65;15.63;;;;;;;0.87;60.62;93892.34;523747;28;843;-64
2024/02/02 00:12:06;;;;;;;21.02;14.85;;;;;;;0.84;60.67;93887.13;523836;28;839;-64
2024/02/02 00:12:22;;;;;;;20.27;14.85;;;;;;;0.83;60.56;93893.78;523730;28;1230;-64
2024/02/02 00:12:37;;;;;;;20.50;14.97;;;;;;;0.83;60.80;93885.63;523804;28;827;-64
2024/02/02 00:12:53;;;;;;;22.02;14.80;;;;;;;0.83;60.85;93886.38;523826;28;1060;-64
2024/02/02 00:13:08;;;;;;;23.02;15.18;;;;;;;0.81;60.48;93883.38;523714;28;792;-64
2024/02/02 00:13:24;;;;;;;21.53;15.87;;;;;;;0.89;60.95;93887.19;523777;28;795;-64
2024/02/02 00:13:40;;;;;;;21.08;16.08;;;;;;;0.89;61.12;93883.75;523776;28;819;-64
2024/02/02 00:13:55;;;;;;;22.50;16.30;;;;;;;0.89;60.55;93889.19;523811;28;769;-64
2024/02/02 00:14:11;;;;;;;23.50;16.63;;;;;;;0.79;60.65;93872.25;523867;28;772;-64
2024/02/02 00:14:26;;;;;;;24.30;16.65;;;;;;;0.89;60.51;93887.19;523769;28;894;-65
2024/02/02 00:14:42;;;;;;;21.17;15.87;;;;;;;0.87;60.80;93884.19;523711;28;881;-64
2024/02/02 00:14:58;;;;;;;20.70;16.08;;;;;;;0.86;60.92;93890.13;523855;28;773;-64
2024/02/02 00:15:13;;;;;;;23.40;16.70;;;;;;;0.81;61.22;93883.38;523806;28;780;-64
2024/02/02 00:15:29;;;;;;;23.70;16.45;;;;;;;0.79;61.34;93891.28;523852;28;791;-64
2024/02/02 00:15:44;;;;;;;23.63;17.10;;;;;;;0.73;61.80;93890.47;523782;28;783;-64
2024/02/02 00:16:00;;;;;;;26.60;17.70;;;;;;;0.68;61.66;93891.88;523744;28;761;-64
2024/02/02 00:16:15;;;;;;;28.02;17.77;;;;;;;0.62;61.77;93887.59;523790;28;820;-65
2024/02/02 00:16:31;;;;;;;26.90;18.07;;;;;;;0.60;61.99;93895.47;523912;28;854;-64
2024/02/02 00:16:47;;;;;;;24.58;17.83;;;;;;;0.59;62.30;93888.53;523766;28;906;-65
2024/02/02 00:17:02;;;;;;;22.53;17.50;;;;;;;0.56;62.69;93890.22;523843;28;841;-64
2024/02/02 00:17:21;;;;;;;23.48;17.30;;;;;;;0.54;62.72;93891.94;523722;28;792;-64
2024/02/02 00:17:36;;;;;;;26.52;18.13;;;;;;;0.53;63.05;93887.72;523779;28;819;-64
2024/02/02 00:17:52;;;;;;;26.63;18.67;;;;;;;0.56;63.23;93892.22;523792;28;772;-64
2024/02/02 00:18:07;;;;;;;28.35;18.15;;;;;;;0.57;62.96;93888.25;523756;28;801;-64
2024/02/02 00:18:23;;;;;;;28.03;18.37;;;;;;;0.59;62.87;93889.28;523776;28;855;-64
2024/02/02 00:18:38;;;;;;;27.17;18.55;;;;;;;0.62;63.02;93893.78;523742;28;840;-64
2024/02/02 00:18:54;;;;;;;27.23;19.00;;;;;;;0.64;63.06;93891.34;523780;28;764;-64
2024/02/02 00:19:09;;;;;;;27.98;19.08;;;;;;;0.62;62.66;93893.03;523741;28;1116;-64
2024/02/02 00:19:25;;;;;;;26.23;18.47;;;;;;;0.58;63.26;93882.38;523774;28;930;-65
2024/02/02 00:19:40;;;;;;;26.67;18.95;;;;;;;0.54;63.26;93881.78;523764;28;955;-64
2024/02/02 00:19:56;;;;;;;29.57;20.33;;;;;;;0.54;63.26;93889.22;523802;28;835;-64
2024/02/02 00:20:14;;;;;;;29.52;19.85;;;;;;;0.53;63.19;93890.44;523737;28;1079;-64
2024/02/02 00:20:29;;;;;;;30.88;19.90;;;;;;;0.51;63.42;93884.72;523812;28;840;-64
2024/02/02 00:20:45;;;;;;;31.27;20.90;;;;;;;0.52;63.45;93881.53;523805;28;932;-65
2024/02/02 00:21:00;;;;;;;28.10;20.77;;;;;;;0.56;63.47;93889.50;523776;28;785;-64
2024/02/02 00:21:15;;;;;;;27.83;21.57;;;;;;;0.57;63.09;93885.53;524038;28;910;-64
2024/02/02 00:21:31;;;;;;;31.23;23.27;;;;;;;0.60;63.17;93887.31;524216;28;831;-64
2024/02/02 00:21:47;;;;;;;35.30;24.20;;;;;;;0.63;63.39;93887.09;524075;28;864;-65
2024/02/02 00:22:02;;;;;;;38.20;26.58;;;;;;;0.67;62.88;93884.94;524340;28;823;-64
2024/02/02 00:22:20;;;;;;;41.67;28.73;;;;;;;0.70;63.03;93885.97;524081;28;1115;-64
2024/02/02 00:22:36;;;;;;;39.55;28.05;;;;;;;0.73;63.09;93890.47;524185;28;901;-64
2024/02/02 00:22:51;;;;;;;37.03;27.27;;;;;;;0.74;62.52;93889.97;524132;28;796;-64
2024/02/02 00:23:07;;;;;;;36.47;26.30;;;;;;;0.78;62.81;93887.78;524076;28;895;-64
2024/02/02 00:23:23;;;;;;;35.63;25.58;;;;;;;0.83;62.73;93891.06;524185;28;948;-64
2024/02/02 00:23:39;;;;;;;33.20;24.33;;;;;;;0.84;62.31;93890.59;524075;28;780;-64
2024/02/02 00:23:54;;;;;;;33.20;23.83;;;;;;;0.87;62.30;93886.19;524283;28;827;-64
2024/02/02 00:24:09;;;;;;;34.30;24.57;;;;;;;0.88;62.45;93887.66;524175;28;1001;-64
2024/02/02 00:24:25;;;;;;;35.70;24.77;;;;;;;0.92;62.26;93893.66;524089;28;902;-64
2024/02/02 00:24:40;;;;;;;36.17;24.57;;;;;;;0.94;62.48;93888.47;524195;28;733;-65
2024/02/02 00:24:56;;;;;;;34.78;24.20;;;;;;;0.96;62.16;93892.22;524180;28;752;-64
2024/02/02 00:25:11;;;;;;;31.53;22.23;;;;;;;0.98;62.24;93887.06;524146;28;1925;-64
2024/02/02 00:25:27;;;;;;;33.33;21.98;;;;;;;0.99;61.98;93888.56;524169;28;843;-64
2024/02/02 00:25:42;;;;;;;35.60;23.23;;;;;;;0.99;62.07;93888.56;524047;28;949;-64
2024/02/02 00:25:58;;;;;;;36.22;23.48;;;;;;;1.02;62.00;93892.31;524174;28;863;-64
2024/02/02 00:26:13;;;;;;;35.57;23.13;;;;;;;1.03;61.64;93886.38;524208;28;823;-65
2024/02/02 00:26:29;;;;;;;31.20;22.33;;;;;;;1.04;61.63;93890.59;524091;28;962;-64
2024/02/02 00:26:44;;;;;;;29.97;22.07;;;;;;;1.05;61.77;93886.66;524200;28;760;-64
2024/02/02 00:27:00;;;;;;;32.65;21.63;;;;;;;1.04;61.53;93887.84;524154;28;856;-64
2024/02/02 00:27:15;;;;;;;33.70;21.97;;;;;;;1.02;61.88;93893.03;524113;28;788;-64
2024/02/02 00:27:31;;;;;;;34.55;22.90;;;;;;;0.99;61.78;93883.13;524213;28;986;-65
2024/02/02 00:27:46;;;;;;;33.03;22.53;;;;;;;0.97;61.41;93885.56;524122;28;883;-64
2024/02/02 00:28:02;;;;;;;29.67;21.65;;;;;;;0.99;61.61;93882.38;524200;28;855;-64
2024/02/02 00:28:18;;;;;;;30.40;21.38;;;;;;;0.99;61.83;93883.13;524091;28;796;-65
2024/02/02 00:28:33;;;;;;;31.93;21.80;;;;;;;0.99;61.67;93883.13;524137;28;1145;-64
2024/02/02 00:28:49;;;;;;;29.77;21.45;;;;;;;1.00;61.66;93886.56;524109;28;823;-65
2024/02/02 00:29:05;;;;;;;30.73;21.70;;;;;;;1.00;61.70;93889.28;524181;28;776;-64
2024/02/02 00:29:20;;;;;;;32.70;22.55;;;;;;;0.98;62.24;93884.34;524223;28;796;-64
2024/02/02 00:29:36;;;;;;;29.63;21.70;;;;;;;1.01;62.07;93888.84;524144;28;938;-64
2024/02/02 00:29:51;;;;;;;29.85;20.98;;;;;;;1.04;61.63;93885.13;524078;28;784;-64
2024/02/02 00:30:07;;;;;;;31.40;21.20;;;;;;;1.05;61.63;93885.91;524129;28;914;-64
2024/02/02 00:30:23;;;;;;;31.63;21.15;;;;;;;1.05;61.73;93885.91;524257;28;849;-65
2024/02/02 00:30:40;;;;;;;31.23;21.27;;;;;;;1.05;61.45;93881.22;524071;28;1104;-64
2024/02/02 00:30:55;;;;;;;29.05;20.23;;;;;;;1.07;61.65;93892.34;524180;28;808;-64
2024/02/02 00:31:11;;;;;;;29.13;19.95;;;;;;;1.08;61.22;93877.56;524151;28;851;-65
2024/02/02 00:31:26;;;;;;;29.70;20.67;;;;;;;1.07;61.03;93876.03;524094;28;1000;-65
2024/02/02 00:31:42;;;;;;;28.42;20.25;;;;;;;1.06;61.56;93877.25;524086;28;820;-64
2024/02/02 00:31:57;;;;;;;28.38;20.60;;;;;;;0.84;61.25;93855.25;524135;28;911;-64
2024/02/02 00:32:13;;;;;;;28.40;20.83;;;;;;;0.94;61.81;93880.31;524165;28;765;-64
2024/02/02 00:32:29;;;;;;;28.67;20.65;;;;;;;0.87;61.63;93875.31;524148;28;891;-64
2024/02/02 00:32:44;;;;;;;29.50;20.40;;;;;;;0.85;61.84;93881.22;524060;28;1083;-63
2024/02/02 00:33:01;;;;;;;28.65;19.80;;;;;;;0.85;62.02;93880.44;524147;28;879;-64
2024/02/02 00:33:16;;;;;;;28.20;19.52;;;;;;;0.86;62.26;93882.72;524114;28;856;-64
2024/02/02 00:33:32;;;;;;;28.27;19.90;;;;;;;0.87;62.13;93886.91;524113;28;1059;-64
2024/02/02 00:33:48;;;;;;;26.20;19.40;;;;;;;0.91;61.65;93892.88;524093;28;891;-64
2024/02/02 00:34:04;;;;;;;24.88;18.88;;;;;;;0.91;61.68;93887.47;524187;28;867;-64
2024/02/02 00:34:19;;;;;;;27.23;19.60;;;;;;;0.93;61.72;93885.03;524149;28;765;-64
2024/02/02 00:34:35;;;;;;;28.83;20.55;;;;;;;0.94;61.76;93885.75;524149;28;1243;-65
2024/02/02 00:34:50;;;;;;;30.20;21.17;;;;;;;0.80;61.87;93881.91;524183;28;776;-64
2024/02/02 00:35:06;;;;;;;30.35;20.77;;;;;;;0.71;62.31;93880.03;524177;28;832;-64
2024/02/02 00:35:22;;;;;;;29.48;20.58;;;;;;;0.63;62.70;93880.91;524168;28;828;-64
2024/02/02 00:35:37;;;;;;;28.67;20.53;;;;;;;0.56;62.69;93884.06;524124;28;954;-64
2024/02/02 00:35:53;;;;;;;28.60;20.70;;;;;;;0.56;62.33;93884.06;524176;28;863;-64
2024/02/02 00:36:08;;;;;;;27.73;20.43;;;;;;;0.57;62.25;93880.09;524059;28;852;-64
2024/02/02 00:36:24;;;;;;;27.95;20.48;;;;;;;0.58;62.66;93882.38;524229;28;874;-64
2024/02/02 00:36:39;;;;;;;29.00;20.93;;;;;;;0.61;62.61;93883.38;524095;28;996;-65
2024/02/02 00:36:54;;;;;;;30.17;21.27;;;;;;;0.62;62.66;93882.16;524140;28;831;-64
2024/02/02 00:37:10;;;;;;;31.03;21.27;;;;;;;0.65;62.25;93884.66;524210;28;799;-65
2024/02/02 00:37:25;;;;;;;29.05;21.27;;;;;;;0.67;62.41;93882.22;524173;28;1101;-65
2024/02/02 00:37:42;;;;;;;29.47;21.00;;;;;;;0.68;62.29;93881.00;524131;28;946;-65
2024/02/02 00:37:57;;;;;;;30.95;20.73;;;;;;;0.71;62.16;93882.03;524149;28;849;-64
2024/02/02 00:38:12;;;;;;;28.90;20.35;;;;;;;0.73;62.30;93882.31;524156;28;812;-64
2024/02/02 00:38:28;;;;;;;25.83;19.60;;;;;;;0.74;61.94;93881.81;524144;28;784;-65
2024/02/02 00:38:43;;;;;;;25.38;19.48;;;;;;;0.75;62.23;93883.31;524134;28;812;-64
2024/02/02 00:38:59;;;;;;;27.17;19.70;;;;;;;0.73;61.95;93882.31;524162;28;780;-64
2024/02/02 00:39:15;;;;;;;29.05;20.52;;;;;;;0.72;61.72;93880.78;524215;28;777;-64
2024/02/02 00:39:30;;;;;;;28.70;20.53;;;;;;;0.70;62.05;93883.25;524106;28;922;-64
2024/02/02 00:39:45;;;;;;;27.30;19.55;;;;;;;0.70;61.84;93888.69;524123;28;792;-64
2024/02/02 00:40:01;;;;;;;26.73;19.47;;;;;;;0.69;61.68;93887.91;524277;28;882;-64
2024/02/02 00:40:17;;;;;;;25.20;19.25;;;;;;;0.71;62.22;93890.19;524099;28;868;-64
2024/02/02 00:40:32;;;;;;;27.87;19.67;;;;;;;0.72;62.16;93886.97;524252;28;815;-64
2024/02/02 00:40:48;;;;;;;28.73;20.02;;;;;;;0.74;62.27;93897.38;524130;28;1167;-64
2024/02/02 00:41:03;;;;;;;27.15;19.77;;;;;;;0.73;62.13;93890.47;524111;28;808;-64
2024/02/02 00:41:19;;;;;;;24.93;18.37;;;;;;;0.73;61.68;93882.31;524186;28;1058;-65
2024/02/02 00:41:34;;;;;;;25.17;18.47;;;;;;;0.73;62.16;93891.22;524146;28;860;-64
2024/02/02 00:41:50;;;;;;;28.10;19.17;;;;;;;0.72;62.01;93884.25;524136;28;899;-64
2024/02/02 00:42:05;;;;;;;27.52;18.85;;;;;;;0.71;62.18;93895.63;524171;28;941;-65
2024/02/02 00:42:21;;;;;;;26.03;18.67;;;;;;;0.67;61.83;93884.22;524139;28;839;-64
2024/02/02 00:42:36;;;;;;;26.58;18.27;;;;;;;0.66;62.29;93893.56;524055;28;864;-64
2024/02/02 00:42:52;;;;;;;25.92;18.08;;;;;;;0.65;61.98;93886.66;524166;28;784;-64
2024/02/02 00:43:07;;;;;;;24.23;18.03;;;;;;;0.66;62.31;93882.69;524092;28;780;-64
2024/02/02 00:43:23;;;;;;;26.48;18.02;;;;;;;0.66;62.33;93877.25;524270;28;1065;-65
2024/02/02 00:43:38;;;;;;;26.53;17.73;;;;;;;0.67;62.12;93884.94;523962;28;803;-64
2024/02/02 00:43:54;;;;;;;27.63;18.27;;;;;;;0.69;62.05;93884.47;524184;28;807;-64
2024/02/02 00:44:10;;;;;;;25.87;17.87;;;;;;;0.70;62.00;93889.44;524083;28;773;-64
2024/02/02 00:44:26;;;;;;;23.25;17.25;;;;;;;0.68;62.14;93891.13;524149;28;808;-65
2024/02/02 00:44:42;;;;;;;25.38;17.75;;;;;;;0.61;62.35;93886.84;524120;28;982;-64
2024/02/02 00:44:59;;;;;;;25.37;17.70;;;;;;;0.56;62.34;93884.06;524140;28;764;-64
2024/02/02 00:45:15;;;;;;;25.35;17.90;;;;;;;0.43;62.71;93870.03;524047;28;1977;-64
2024/02/02 00:45:30;;;;;;;27.33;17.20;;;;;;;0.51;62.99;93879.28;524160;28;843;-64
2024/02/02 00:45:46;;;;;;;33.73;18.30;;;;;;;0.51;62.90;93884.72;524114;28;797;-64
2024/02/02 00:46:01;;;;;;;34.53;18.65;;;;;;;0.51;62.74;93882.00;524193;28;827;-64
2024/02/02 00:46:17;;;;;;;27.93;17.57;;;;;;;0.51;62.81;93882.00;524108;28;788;-64
2024/02/02 00:46:32;;;;;;;25.75;17.70;;;;;;;0.52;62.61;93880.78;524063;28;827;-65
2024/02/02 00:46:48;;;;;;;24.07;17.60;;;;;;;0.53;63.01;93871.41;524153;28;799;-64
2024/02/02 00:47:03;;;;;;;23.60;17.23;;;;;;;0.54;62.84;93881.78;524230;28;805;-64
2024/02/02 00:47:19;;;;;;;21.90;16.77;;;;;;;0.57;62.54;93877.38;524041;28;844;-64
2024/02/02 00:47:34;;;;;;;21.75;16.27;;;;;;;0.58;62.92;93874.22;524209;28;839;-64
2024/02/02 00:47:50;;;;;;;24.33;16.87;;;;;;;0.57;62.79;93882.81;524080;28;832;-64
2024/02/02 00:48:06;;;;;;;23.10;16.85;;;;;;;0.58;62.69;93878.91;524088;28;832;-64
2024/02/02 00:48:21;;;;;;;21.88;16.60;;;;;;;0.57;62.29;93880.84;524182;28;797;-64
2024/02/02 00:48:38;;;;;;;25.97;17.17;;;;;;;0.57;62.21;93875.41;524084;28;1026;-64
2024/02/02 00:48:53;;;;;;;25.75;16.90;;;;;;;0.59;62.16;93872.97;524209;28;836;-64
2024/02/02 00:49:09;;;;;;;22.57;16.53;;;;;;;0.61;62.20;93877.94;524019;28;765;-64
2024/02/02 00:49:24;;;;;;;21.95;15.57;;;;;;;0.63;62.38;93872.75;524117;28;899;-64
2024/02/02 00:49:40;;;;;;;22.30;15.90;;;;;;;0.65;62.16;93873.78;524102;28;863;-64
2024/02/02 00:49:55;;;;;;;23.40;16.65;;;;;;;0.67;62.13;93874.06;524129;28;940;-64
2024/02/02 00:50:11;;;;;;;21.05;16.20;;;;;;;0.69;61.97;93877.06;524136;28;828;-63
2024/02/02 00:50:26;;;;;;;21.63;16.03;;;;;;;0.71;61.85;93876.59;524146;28;728;-64
2024/02/02 00:50:42;;;;;;;24.77;16.88;;;;;;;0.72;61.84;93876.13;524065;28;847;-64
2024/02/02 00:50:57;;;;;;;23.63;17.20;;;;;;;0.74;61.83;93883.78;524117;28;828;-64
2024/02/02 00:51:13;;;;;;;24.10;17.42;;;;;;;0.73;61.89;93874.91;524142;28;805;-64
2024/02/02 00:51:28;;;;;;;23.87;17.60;;;;;;;0.73;61.86;93874.91;524097;28;872;-64
2024/02/02 00:51:44;;;;;;;21.60;17.05;;;;;;;0.73;61.88;93877.63;524103;28;843;-64
2024/02/02 00:51:59;;;;;;;23.17;17.00;;;;;;;0.73;61.79;93882.31;524030;28;836;-64
2024/02/02 00:52:15;;;;;;;23.70;16.88;;;;;;;0.74;61.58;93875.63;524056;28;1080;-64
2024/02/02 00:52:31;;;;;;;24.50;16.97;;;;;;;0.75;61.83;93882.56;524151;28;801;-64
2024/02/02 00:52:47;;;;;;;22.55;16.42;;;;;;;0.76;61.79;93882.09;524054;28;1513;-64
2024/02/02 00:53:03;;;;;;;23.73;16.88;;;;;;;0.76;61.64;93894.91;524174;28;829;-64
2024/02/02 00:53:18;;;;;;;24.37;17.13;;;;;;;0.75;62.20;93882.56;524018;28;1240;-64
2024/02/02 00:53:34;;;;;;;23.88;17.50;;;;;;;0.74;62.17;93878.34;524081;28;921;-64
2024/02/02 00:53:49;;;;;;;23.80;18.07;;;;;;;0.72;62.05;93878.84;524028;28;745;-64
2024/02/02 00:54:05;;;;;;;22.48;17.48;;;;;;;0.71;62.17;93882.03;524107;28;839;-64
2024/02/02 00:54:20;;;;;;;22.97;16.73;;;;;;;0.70;62.02;93878.56;524178;28;855;-64
2024/02/02 00:54:36;;;;;;;23.75;16.77;;;;;;;0.71;61.92;93882.03;524054;28;769;-64
2024/02/02 00:54:51;;;;;;;23.33;16.93;;;;;;;0.69;62.40;93884.47;524087;28;740;-64
2024/02/02 00:55:07;;;;;;;21.48;16.40;;;;;;;0.63;62.81;93884.38;524094;28;748;-64
2024/02/02 00:55:22;;;;;;;21.77;16.55;;;;;;;0.57;62.99;93880.09;524129;28;1540;-64
2024/02/02 00:55:38;;;;;;;22.77;16.50;;;;;;;0.49;62.86;93881.72;524052;28;792;-64
2024/02/02 00:55:53;;;;;;;22.02;16.08;;;;;;;0.44;63.32;93880.44;524202;28;820;-64
2024/02/02 00:56:09;;;;;;;23.13;16.67;;;;;;;0.39;63.79;93883.81;524000;28;820;-65
2024/02/02 00:56:24;;;;;;;24.75;17.48;;;;;;;0.37;63.25;93883.53;524180;28;780;-64
2024/02/02 00:56:40;;;;;;;23.00;17.20;;;;;;;0.40;63.51;93881.84;524099;28;780;-65
2024/02/02 00:56:55;;;;;;;21.05;16.00;;;;;;;0.41;63.67;93880.63;524159;28;785;-64
2024/02/02 00:57:12;;;;;;;22.37;16.17;;;;;;;0.42;63.23;93879.41;524154;28;776;-64
2024/02/02 00:57:31;;;;;;;21.67;16.80;;;;;;;0.45;63.27;93887.38;524116;28;816;-64
2024/02/02 00:57:47;;;;;;;24.00;17.05;;;;;;;0.48;63.22;93880.97;524092;28;824;-64
2024/02/02 00:58:02;;;;;;;24.75;16.60;;;;;;;0.51;63.12;93885.47;524171;28;882;-64
2024/02/02 00:58:18;;;;;;;20.40;15.70;;;;;;;0.53;62.85;93882.28;524120;28;797;-64
2024/02/02 00:58:34;;;;;;;23.48;16.35;;;;;;;0.55;62.62;93883.31;524206;28;832;-65
2024/02/02 00:58:49;;;;;;;26.03;16.70;;;;;;;0.58;62.55;93887.03;524021;28;817;-64
2024/02/02 00:59:05;;;;;;;22.98;15.88;;;;;;;0.58;63.05;93882.38;524108;28;839;-64
2024/02/02 00:59:20;;;;;;;21.57;16.13;;;;;;;0.60;62.93;93879.91;524100;28;875;-64
2024/02/02 00:59:36;;;;;;;23.25;16.65;;;;;;;0.62;62.63;93880.19;524054;28;780;-64
2024/02/02 00:59:52;;;;;;;23.77;16.67;;;;;;;0.50;62.48;93864.94;524133;28;824;-64
2024/02/02 01:00:10;;;;;;;22.85;16.58;;;;;;;0.66;62.47;93888.13;523949;28;970;-64
2024/02/02 01:00:25;;;;;;;22.13;16.33;;;;;;;0.68;62.73;93881.00;524044;28;964;-64
2024/02/02 01:00:41;;;;;;;22.23;16.23;;;;;;;0.69;62.04;93879.78;524134;28;740;-64
2024/02/02 01:00:56;;;;;;;23.20;16.02;;;;;;;0.71;62.51;93879.31;524079;28;801;-64
2024/02/02 01:01:12;;;;;;;23.43;16.10;;;;;;;0.70;62.51;93877.81;524104;28;832;-64
2024/02/02 01:01:27;;;;;;;21.63;16.15;;;;;;;0.68;62.19;93886.44;524119;28;856;-64
2024/02/02 01:01:43;;;;;;;20.93;15.80;;;;;;;0.67;62.31;93882.22;524001;28;824;-64
2024/02/02 01:01:58;;;;;;;21.83;16.13;;;;;;;0.67;62.29;93884.22;524085;28;800;-64
2024/02/02 01:02:14;;;;;;;21.90;16.60;;;;;;;0.66;62.62;93879.97;524096;28;773;-64
2024/02/02 01:02:29;;;;;;;20.85;15.82;;;;;;;0.63;62.36;93886.34;524097;28;851;-64
2024/02/02 01:02:45;;;;;;;24.20;16.37;;;;;;;0.46;62.34;93852.78;524109;28;804;-64
2024/02/02 01:03:00;;;;;;;25.15;17.02;;;;;;;0.54;62.32;93878.34;524150;28;776;-64
2024/02/02 01:03:16;;;;;;;23.87;16.33;;;;;;;0.43;62.50;93872.75;524013;28;749;-64
2024/02/02 01:03:33;;;;;;;22.70;16.30;;;;;;;0.40;62.99;93870.97;524201;28;815;-64
2024/02/02 01:03:49;;;;;;;22.17;16.48;;;;;;;0.33;63.16;93874.84;523937;28;911;-65
2024/02/02 01:04:04;;;;;;;24.08;16.70;;;;;;;0.29;62.94;93878.97;524067;28;1108;-64
2024/02/02 01:04:20;;;;;;;22.60;16.53;;;;;;;0.27;63.02;93875.97;524059;28;831;-64
2024/02/02 01:04:35;;;;;;;20.95;15.48;;;;;;;0.23;63.26;93878.16;523999;28;848;-64
2024/02/02 01:04:51;;;;;;;22.07;15.80;;;;;;;0.22;63.25;93879.38;525309;28;1258;-64
2024/02/02 01:05:08;;;;;;;24.23;16.48;;;;;;;0.22;63.27;93873.94;526103;28;1022;-64
2024/02/02 01:05:24;;;;;;;22.15;15.65;;;;;;;0.23;63.26;93872.72;526194;28;1971;-64
2024/02/02 01:05:39;;;;;;;20.10;14.82;;;;;;;0.27;63.52;93873.25;526159;28;855;-64
2024/02/02 01:05:55;;;;;;;20.05;15.48;;;;;;;0.28;63.43;93875.50;526130;28;863;-63
2024/02/02 01:06:11;;;;;;;20.67;16.23;;;;;;;0.28;63.05;93880.94;526178;28;796;-64
2024/02/02 01:06:26;;;;;;;23.05;16.63;;;;;;;0.29;63.63;93881.69;526215;28;912;-64
2024/02/02 01:06:42;;;;;;;22.97;16.33;;;;;;;0.30;63.37;93878.50;526166;28;777;-64
2024/02/02 01:06:57;;;;;;;20.67;15.98;;;;;;;0.32;63.27;93875.31;526142;28;813;-64
2024/02/02 01:07:16;;;;;;;22.07;15.97;;;;;;;0.30;63.08;93880.47;526095;28;736;-64
2024/02/02 01:07:31;;;;;;;23.58;15.57;;;;;;;0.29;63.65;93865.38;526251;28;879;-64
2024/02/02 01:07:48;;;;;;;23.85;15.93;;;;;;;0.22;63.66;93877.38;526140;28;764;-64
2024/02/02 01:08:04;;;;;;;23.88;15.90;;;;;;;0.11;64.00;93882.66;526287;28;887;-64
2024/02/02 01:08:20;;;;;;;23.95;16.73;;;;;;;0.06;63.93;93871.72;526215;28;821;-64
2024/02/02 01:08:35;;;;;;;36.22;25.15;;;;;;;0.04;64.13;93874.91;526222;28;863;-64
2024/02/02 01:08:51;;;;;;;45.60;31.75;;;;;;;0.04;64.39;93879.59;526176;28;784;-64
2024/02/02 01:09:06;;;;;;;35.73;26.23;;;;;;;0.04;64.13;93874.16;526066;28;815;-64
2024/02/02 01:09:22;;;;;;;31.70;22.63;;;;;;;0.05;63.83;93873.69;526219;28;843;-64
2024/02/02 01:09:37;;;;;;;35.13;21.90;;;;;;;0.07;64.33;93873.97;526170;28;820;-64
2024/02/02 01:09:53;;;;;;;30.08;19.58;;;;;;;0.10;64.27;93875.00;526222;28;748;-64
2024/02/02 01:10:12;;;;;;;26.00;18.57;;;;;;;0.13;64.15;93874.78;526048;28;833;-64
2024/02/02 01:10:28;;;;;;;24.83;18.17;;;;;;;-0.16;64.07;93832.19;526150;28;894;-64
2024/02/02 01:10:43;;;;;;;25.55;17.67;;;;;;;0.13;63.88;93869.34;526248;28;880;-64
2024/02/02 01:10:59;;;;;;;26.42;18.15;;;;;;;0.15;64.04;93869.66;526141;28;863;-64
2024/02/02 01:11:14;;;;;;;27.10;19.17;;;;;;;0.19;63.91;93875.63;526265;28;800;-64
2024/02/02 01:11:30;;;;;;;25.85;18.98;;;;;;;0.21;63.85;93869.72;526098;28;819;-64
2024/02/02 01:11:45;;;;;;;25.40;18.20;;;;;;;0.24;63.76;93871.50;526265;28;807;-64
2024/02/02 01:12:01;;;;;;;26.15;18.10;;;;;;;0.28;63.46;93869.34;526235;28;786;-64
2024/02/02 01:12:17;;;;;;;25.13;17.83;;;;;;;0.30;63.27;93873.09;526167;28;752;-64
2024/02/02 01:12:33;;;;;;;25.42;18.00;;;;;;;0.28;63.47;93872.06;525776;28;905;-64
2024/02/02 01:12:49;;;;;;;26.15;17.65;;;;;;;0.25;63.65;93873.00;526001;28;939;-64
2024/02/02 01:13:04;;;;;;;27.07;17.53;;;;;;;0.24;63.86;93877.66;526271;28;811;-64
2024/02/02 01:13:20;;;;;;;27.70;17.23;;;;;;;0.25;63.66;93865.59;526167;28;782;-64
2024/02/02 01:13:36;;;;;;;24.13;16.65;;;;;;;0.25;63.96;93875.69;526078;28;953;-64
2024/02/02 01:13:51;;;;;;;22.70;16.87;;;;;;;0.23;63.94;93861.84;526196;28;748;-64
2024/02/02 01:14:07;;;;;;;24.05;17.60;;;;;;;0.19;63.87;93869.44;525668;28;863;-65
2024/02/02 01:14:23;;;;;;;26.63;18.40;;;;;;;0.18;63.85;93873.38;526200;28;828;-64
2024/02/02 01:14:39;;;;;;;27.30;18.13;;;;;;;0.15;63.82;93863.47;526118;28;725;-64
2024/02/02 01:14:54;;;;;;;23.80;17.27;;;;;;;0.14;63.91;93868.16;526301;28;875;-64
2024/02/02 01:15:10;;;;;;;21.50;16.77;;;;;;;0.15;63.82;93872.38;526154;28;803;-64
2024/02/02 01:15:27;;;;;;;22.30;16.92;;;;;;;0.16;63.55;93868.41;526163;28;804;-65